createdAt,value
2019-02-06T00:01:07.685Z,110.68
2019-02-06T00:02:05.346Z,101.87
2019-02-06T00:02:41.024Z,109.97
2019-02-06T00:03:20.669Z,108.03
2019-02-06T00:03:56.474Z,111.88
2019-02-06T00:04:32.341Z,108.83
2019-02-06T00:05:14.087Z,111.42
2019-02-06T00:05:45.899Z,109.30
2019-02-06T00:06:21.938Z,110.78
2019-02-06T00:06:58.219Z,106.67
2019-02-06T00:07:34.007Z,109.87
2019-02-06T00:08:10.319Z,113.40
2019-02-06T00:08:46.200Z,116.53
2019-02-06T00:09:22.197Z,113.45
2019-02-06T00:09:58.257Z,107.90
2019-02-06T00:10:34.227Z,110.15
2019-02-06T00:11:10.168Z,107.32
2019-02-06T00:11:45.947Z,109.75
2019-02-06T00:12:21.830Z,109.22
2019-02-06T00:12:57.851Z,109.50
2019-02-06T00:13:33.631Z,109.83
2019-02-06T00:14:09.662Z,108.40
2019-02-06T00:14:45.443Z,108.27
2019-02-06T00:15:21.427Z,107.67
2019-02-06T00:15:57.586Z,107.97
2019-02-06T00:16:33.417Z,103.42
2019-02-06T00:17:09.467Z,110.52
2019-02-06T00:17:45.299Z,110.03
2019-02-06T00:18:21.227Z,110.90
2019-02-06T00:18:57.166Z,114.60
2019-02-06T00:19:32.870Z,117.00
2019-02-06T00:20:09.373Z,111.32
2019-02-06T00:20:45.321Z,114.80
2019-02-06T00:21:21.382Z,111.65
2019-02-06T00:21:57.289Z,109.50
2019-02-06T00:22:33.138Z,107.07
2019-02-06T00:23:08.997Z,108.78
2019-02-06T00:23:44.808Z,113.20
2019-02-06T00:24:20.911Z,112.52
2019-02-06T00:24:56.577Z,112.65
2019-02-06T00:25:32.637Z,108.40
2019-02-06T00:26:08.617Z,113.25
2019-02-06T00:26:44.335Z,108.50
2019-02-06T00:27:20.517Z,119.33
2019-02-06T00:27:56.252Z,113.68
2019-02-06T00:28:31.933Z,120.25
2019-02-06T00:29:07.693Z,113.77
2019-02-06T00:29:43.780Z,114.28
2019-02-06T00:30:21.346Z,111.88
2019-02-06T00:30:57.144Z,107.58
2019-02-06T00:31:32.918Z,105.22
2019-02-06T00:32:08.900Z,106.35
2019-02-06T00:32:44.882Z,107.65
2019-02-06T00:33:23.881Z,106.07
2019-02-06T00:33:59.746Z,107.95
2019-02-06T00:34:35.573Z,112.75
2019-02-06T00:35:11.604Z,107.22
2019-02-06T00:35:47.784Z,106.25
2019-02-06T00:36:23.576Z,107.67
2019-02-06T00:36:59.719Z,106.17
2019-02-06T00:37:35.868Z,112.12
2019-02-06T00:38:11.796Z,108.30
2019-02-06T00:38:47.857Z,106.72
2019-02-06T00:39:24.096Z,111.20
2019-02-06T00:40:00.315Z,111.97
2019-02-06T00:40:36.347Z,113.45
2019-02-06T00:41:12.144Z,108.60
2019-02-06T00:41:47.844Z,111.95
2019-02-06T00:42:23.504Z,112.42
2019-02-06T00:42:59.356Z,107.50
2019-02-06T00:43:35.156Z,104.35
2019-02-06T00:44:10.977Z,105.92
2019-02-06T00:44:46.990Z,107.55
2019-02-06T00:45:23.011Z,107.50
2019-02-06T00:45:58.933Z,103.27
2019-02-06T00:46:34.607Z,104.53
2019-02-06T00:47:10.531Z,113.10
2019-02-06T00:47:46.336Z,108.27
2019-02-06T00:48:21.999Z,110.60
2019-02-06T00:48:57.707Z,109.27
2019-02-06T00:49:33.809Z,108.87
2019-02-06T00:50:10.941Z,114.60
2019-02-06T00:50:46.981Z,112.17
2019-02-06T00:51:22.684Z,111.88
2019-02-06T00:51:58.552Z,111.35
2019-02-06T00:52:34.199Z,111.77
2019-02-06T00:53:10.080Z,112.97
2019-02-06T00:53:45.900Z,108.55
2019-02-06T00:54:22.122Z,106.87
2019-02-06T00:54:57.999Z,109.30
2019-02-06T00:55:33.899Z,109.42
2019-02-06T00:56:09.636Z,113.28
2019-02-06T00:56:45.638Z,105.90
2019-02-06T00:57:21.576Z,107.58
2019-02-06T00:57:57.144Z,106.67
2019-02-06T00:58:33.037Z,107.78
2019-02-06T00:59:08.816Z,111.55
2019-02-06T00:59:44.658Z,112.85
2019-02-06T01:00:22.980Z,108.50
2019-02-06T01:00:58.699Z,108.72
2019-02-06T01:01:34.537Z,110.70
2019-02-06T01:02:10.342Z,108.42
2019-02-06T01:02:45.960Z,110.78
2019-02-06T01:03:22.039Z,105.05
2019-02-06T01:03:57.881Z,105.58
2019-02-06T01:04:33.961Z,106.78
2019-02-06T01:05:10.529Z,105.83
2019-02-06T01:05:46.622Z,108.15
2019-02-06T01:06:22.242Z,106.12
2019-02-06T01:06:58.021Z,107.05
2019-02-06T01:07:33.701Z,103.12
2019-02-06T01:08:09.485Z,106.40
2019-02-06T01:08:45.405Z,104.92
2019-02-06T01:09:21.515Z,107.87
2019-02-06T01:09:57.521Z,105.52
2019-02-06T01:10:33.360Z,105.95
2019-02-06T01:11:09.407Z,108.03
2019-02-06T01:11:45.034Z,103.62
2019-02-06T01:12:21.015Z,105.87
2019-02-06T01:12:56.804Z,110.75
2019-02-06T01:13:34.142Z,111.68
2019-02-06T01:14:09.961Z,104.07
2019-02-06T01:14:46.036Z,108.17
2019-02-06T01:15:21.876Z,105.37
2019-02-06T01:15:57.816Z,110.83
2019-02-06T01:16:33.596Z,114.10
2019-02-06T01:17:09.421Z,112.62
2019-02-06T01:17:45.261Z,109.75
2019-02-06T01:18:21.359Z,110.90
2019-02-06T01:18:57.237Z,115.40
2019-02-06T01:19:33.178Z,112.92
2019-02-06T01:20:10.020Z,110.03
2019-02-06T01:20:45.737Z,113.05
2019-02-06T01:21:21.477Z,111.45
2019-02-06T01:21:57.146Z,109.63
2019-02-06T01:22:32.870Z,109.57
2019-02-06T01:23:08.822Z,108.87
2019-02-06T01:23:44.502Z,115.50
2019-02-06T01:24:20.421Z,110.97
2019-02-06T01:24:56.262Z,112.10
2019-02-06T01:25:31.946Z,111.77
2019-02-06T01:26:07.724Z,119.60
2019-02-06T01:26:43.489Z,114.50
2019-02-06T01:27:19.231Z,114.45
2019-02-06T01:27:55.010Z,107.45
2019-02-06T01:28:30.630Z,106.15
2019-02-06T01:29:06.480Z,110.57
2019-02-06T01:29:42.130Z,108.95
2019-02-06T01:30:21.275Z,109.63
2019-02-06T01:31:10.294Z,109.85
2019-02-06T01:31:45.818Z,108.40
2019-02-06T01:32:21.660Z,105.97
2019-02-06T01:32:57.286Z,108.15
2019-02-06T01:33:33.067Z,111.30
2019-02-06T01:34:08.900Z,107.83
2019-02-06T01:34:44.946Z,111.95
2019-02-06T01:35:20.612Z,110.03
2019-02-06T01:35:56.736Z,108.65
2019-02-06T01:36:32.525Z,104.30
2019-02-06T01:37:08.225Z,109.90
2019-02-06T01:37:43.944Z,106.58
2019-02-06T01:38:20.102Z,105.65
2019-02-06T01:38:55.944Z,104.40
2019-02-06T01:39:31.762Z,103.58
2019-02-06T01:40:08.307Z,105.32
2019-02-06T01:40:44.026Z,105.55
2019-02-06T01:41:19.726Z,104.65
2019-02-06T01:41:55.307Z,101.27
2019-02-06T01:42:31.001Z,102.80
2019-02-06T01:43:06.981Z,104.63
2019-02-06T01:43:43.281Z,102.82
2019-02-06T01:44:18.907Z,102.32
2019-02-06T01:44:56.021Z,105.80
2019-02-06T01:45:31.717Z,105.50
2019-02-06T01:46:07.710Z,108.78
2019-02-06T01:46:43.670Z,104.87
2019-02-06T01:47:19.453Z,103.72
2019-02-06T01:47:55.198Z,103.42
2019-02-06T01:48:31.031Z,99.58
2019-02-06T01:49:06.730Z,106.12
2019-02-06T01:49:44.761Z,103.45
2019-02-06T01:50:20.570Z,100.00
2019-02-06T01:50:56.129Z,102.30
2019-02-06T01:51:31.954Z,104.05
2019-02-06T01:52:07.696Z,102.50
2019-02-06T01:52:43.627Z,106.47
2019-02-06T01:53:19.472Z,100.62
2019-02-06T01:53:55.452Z,103.42
2019-02-06T01:54:31.080Z,104.38
2019-02-06T01:55:07.938Z,103.83
2019-02-06T01:55:43.717Z,106.30
2019-02-06T01:56:19.457Z,108.40
2019-02-06T01:56:55.477Z,107.70
2019-02-06T01:57:31.057Z,103.12
2019-02-06T01:58:07.057Z,109.22
2019-02-06T01:58:43.077Z,109.57
2019-02-06T01:59:18.717Z,104.38
2019-02-06T01:59:54.761Z,104.58
2019-02-06T02:00:30.798Z,101.65
2019-02-06T02:01:07.465Z,104.67
2019-02-06T02:01:43.580Z,104.05
2019-02-06T02:02:19.318Z,106.87
2019-02-06T02:02:54.917Z,104.03
2019-02-06T02:03:30.559Z,103.25
2019-02-06T02:04:06.517Z,101.90
2019-02-06T02:04:42.398Z,104.32
2019-02-06T02:05:20.313Z,103.47
2019-02-06T02:06:02.490Z,100.70
2019-02-06T02:06:33.310Z,103.10
2019-02-06T02:07:09.165Z,104.25
2019-02-06T02:07:44.964Z,100.92
2019-02-06T02:08:20.824Z,103.40
2019-02-06T02:09:00.502Z,106.72
2019-02-06T02:09:36.390Z,101.87
2019-02-06T02:10:12.290Z,105.55
2019-02-06T02:10:48.246Z,103.67
2019-02-06T02:11:24.529Z,104.17
2019-02-06T02:12:00.201Z,100.47
2019-02-06T02:12:36.381Z,101.65
2019-02-06T02:13:12.141Z,104.58
2019-02-06T02:13:47.741Z,104.78
2019-02-06T02:14:23.724Z,102.75
2019-02-06T02:14:59.658Z,101.87
2019-02-06T02:15:35.510Z,101.82
2019-02-06T02:16:11.347Z,101.53
2019-02-06T02:16:47.007Z,101.53
2019-02-06T02:17:22.651Z,99.65
2019-02-06T02:17:58.435Z,100.20
2019-02-06T02:18:34.313Z,96.92
2019-02-06T02:19:10.340Z,99.95
2019-02-06T02:19:46.100Z,100.15
2019-02-06T02:20:23.260Z,98.85
2019-02-06T02:20:58.976Z,96.32
2019-02-06T02:21:34.627Z,96.42
2019-02-06T02:22:10.454Z,97.12
2019-02-06T02:22:46.265Z,103.07
2019-02-06T02:23:22.084Z,100.25
2019-02-06T02:23:57.978Z,99.60
2019-02-06T02:24:33.787Z,97.30
2019-02-06T02:25:09.786Z,102.10
2019-02-06T02:25:45.470Z,98.37
2019-02-06T02:27:04.156Z,100.40
2019-02-06T02:27:39.877Z,100.38
2019-02-06T02:28:15.617Z,100.67
2019-02-06T02:28:51.400Z,104.70
2019-02-06T02:29:27.080Z,98.80
2019-02-06T02:30:02.903Z,101.12
2019-02-06T02:30:48.101Z,107.12
2019-02-06T02:31:23.840Z,96.90
2019-02-06T02:31:59.617Z,102.05
2019-02-06T02:32:35.637Z,102.35
2019-02-06T02:33:11.719Z,109.10
2019-02-06T02:33:47.639Z,102.58
2019-02-06T02:34:23.867Z,104.80
2019-02-06T02:34:59.637Z,105.12
2019-02-06T02:35:35.537Z,105.47
2019-02-06T02:36:15.647Z,104.83
2019-02-06T02:36:48.842Z,108.47
2019-02-06T02:37:24.446Z,104.75
2019-02-06T02:38:00.218Z,103.53
2019-02-06T02:38:35.898Z,104.03
2019-02-06T02:39:12.026Z,102.25
2019-02-06T02:39:47.845Z,102.87
2019-02-06T02:40:23.607Z,105.32
2019-02-06T02:40:59.407Z,101.22
2019-02-06T02:41:35.353Z,99.32
2019-02-06T02:42:11.088Z,99.45
2019-02-06T02:42:47.023Z,98.55
2019-02-06T02:43:22.740Z,98.33
2019-02-06T02:43:58.650Z,95.20
2019-02-06T02:44:34.505Z,101.15
2019-02-06T02:45:12.066Z,100.90
2019-02-06T02:45:47.882Z,100.00
2019-02-06T02:46:23.544Z,101.75
2019-02-06T02:46:59.525Z,99.30
2019-02-06T02:47:35.327Z,99.67
2019-02-06T02:48:11.646Z,98.70
2019-02-06T02:48:49.943Z,94.83
2019-02-06T02:49:25.837Z,96.92
2019-02-06T02:50:01.672Z,97.60
2019-02-06T02:50:37.857Z,102.78
2019-02-06T02:51:13.725Z,100.47
2019-02-06T02:51:49.558Z,102.47
2019-02-06T02:52:25.302Z,103.55
2019-02-06T02:53:01.057Z,100.45
2019-02-06T02:53:36.757Z,102.58
2019-02-06T02:54:12.718Z,98.25
2019-02-06T02:54:48.434Z,97.88
2019-02-06T02:55:24.110Z,99.60
2019-02-06T02:55:59.711Z,96.08
2019-02-06T02:56:35.470Z,97.05
2019-02-06T02:57:11.290Z,98.52
2019-02-06T02:57:47.237Z,99.67
2019-02-06T02:58:23.071Z,103.85
2019-02-06T02:58:58.970Z,100.38
2019-02-06T02:59:34.690Z,98.92
2019-02-06T03:00:14.310Z,96.00
2019-02-06T03:01:07.850Z,94.30
2019-02-06T03:02:11.850Z,93.25
2019-02-06T03:02:56.910Z,86.12
2019-02-06T03:03:42.691Z,85.47
2019-02-06T03:04:26.071Z,87.27
2019-02-06T03:05:09.070Z,87.20
2019-02-06T03:05:44.873Z,85.97
2019-02-06T03:06:28.212Z,87.95
2019-02-06T03:06:57.751Z,85.53
2019-02-06T03:07:33.697Z,87.95
2019-02-06T03:08:09.716Z,91.90
2019-02-06T03:08:45.431Z,94.25
2019-02-06T03:09:21.260Z,94.28
2019-02-06T03:09:57.485Z,92.35
2019-02-06T03:10:33.444Z,90.15
2019-02-06T03:11:09.542Z,95.83
2019-02-06T03:11:45.521Z,87.53
2019-02-06T03:12:24.306Z,91.42
2019-02-06T03:13:00.255Z,90.62
2019-02-06T03:13:36.114Z,91.78
2019-02-06T03:14:11.979Z,92.40
2019-02-06T03:14:47.697Z,88.90
2019-02-06T03:15:23.420Z,91.57
2019-02-06T03:15:59.141Z,91.25
2019-02-06T03:16:35.381Z,88.03
2019-02-06T03:17:11.092Z,90.62
2019-02-06T03:17:46.812Z,95.07
2019-02-06T03:18:22.693Z,94.42
2019-02-06T03:18:58.577Z,91.47
2019-02-06T03:19:34.378Z,89.40
2019-02-06T03:20:11.452Z,91.82
2019-02-06T03:20:47.289Z,91.30
2019-02-06T03:21:23.197Z,90.28
2019-02-06T03:21:59.125Z,94.00
2019-02-06T03:22:34.787Z,93.17
2019-02-06T03:23:10.766Z,86.50
2019-02-06T03:23:46.486Z,88.35
2019-02-06T03:24:22.289Z,91.97
2019-02-06T03:24:58.401Z,90.62
2019-02-06T03:25:34.144Z,89.30
2019-02-06T03:26:10.269Z,91.00
2019-02-06T03:26:46.157Z,87.20
2019-02-06T03:27:22.071Z,90.25
2019-02-06T03:27:57.751Z,92.20
2019-02-06T03:28:33.690Z,90.80
2019-02-06T03:29:09.281Z,87.05
2019-02-06T03:29:44.962Z,86.25
2019-02-06T03:30:20.824Z,93.40
2019-02-06T03:30:56.668Z,92.65
2019-02-06T03:31:32.546Z,94.62
2019-02-06T03:32:08.468Z,91.95
2019-02-06T03:32:44.370Z,92.25
2019-02-06T03:33:20.309Z,95.55
2019-02-06T03:33:55.982Z,91.30
2019-02-06T03:34:31.820Z,91.72
2019-02-06T03:35:08.217Z,95.50
2019-02-06T03:35:44.506Z,87.78
2019-02-06T03:36:20.140Z,89.05
2019-02-06T03:36:55.819Z,87.72
2019-02-06T03:37:31.690Z,86.85
2019-02-06T03:38:07.543Z,85.75
2019-02-06T03:38:43.294Z,87.27
2019-02-06T03:39:18.881Z,91.10
2019-02-06T03:39:55.001Z,90.50
2019-02-06T03:40:30.901Z,93.37
2019-02-06T03:41:06.990Z,92.17
2019-02-06T03:41:42.578Z,92.42
2019-02-06T03:42:18.741Z,87.05
2019-02-06T03:42:54.667Z,87.30
2019-02-06T03:43:30.597Z,86.35
2019-02-06T03:44:06.377Z,90.38
2019-02-06T03:44:42.257Z,89.17
2019-02-06T03:45:17.959Z,89.42
2019-02-06T03:45:53.726Z,91.10
2019-02-06T03:46:29.586Z,92.37
2019-02-06T03:47:06.061Z,89.35
2019-02-06T03:47:41.717Z,90.38
2019-02-06T03:48:17.958Z,94.62
2019-02-06T03:48:53.736Z,90.07
2019-02-06T03:49:29.634Z,92.33
2019-02-06T03:50:06.069Z,89.52
2019-02-06T03:50:41.861Z,92.60
2019-02-06T03:51:17.643Z,93.80
2019-02-06T03:51:53.441Z,88.65
2019-02-06T03:52:29.340Z,86.92
2019-02-06T03:53:05.379Z,85.00
2019-02-06T03:53:41.145Z,87.30
2019-02-06T03:54:17.137Z,84.70
2019-02-06T03:54:53.405Z,86.02
2019-02-06T03:55:29.223Z,84.65
2019-02-06T03:56:05.297Z,83.00
2019-02-06T03:56:40.936Z,87.27
2019-02-06T03:57:17.789Z,86.97
2019-02-06T03:57:53.568Z,87.40
2019-02-06T03:58:29.311Z,86.22
2019-02-06T03:59:05.134Z,87.45
2019-02-06T03:59:40.897Z,88.10
2019-02-06T04:00:17.257Z,86.78
2019-02-06T04:00:52.977Z,85.75
2019-02-06T04:01:28.797Z,89.17
2019-02-06T04:02:04.748Z,87.33
2019-02-06T04:02:40.529Z,92.65
2019-02-06T04:03:16.356Z,91.08
2019-02-06T04:03:52.130Z,87.55
2019-02-06T04:04:28.063Z,88.40
2019-02-06T04:05:03.777Z,90.35
2019-02-06T04:05:39.759Z,89.90
2019-02-06T04:06:15.579Z,85.60
2019-02-06T04:06:55.138Z,87.02
2019-02-06T04:07:28.856Z,87.88
2019-02-06T04:08:05.157Z,85.00
2019-02-06T04:08:40.928Z,83.80
2019-02-06T04:09:16.756Z,85.22
2019-02-06T04:09:52.647Z,90.05
2019-02-06T04:10:28.340Z,87.53
2019-02-06T04:11:04.509Z,92.70
2019-02-06T04:11:40.341Z,88.65
2019-02-06T04:12:16.273Z,88.17
2019-02-06T04:12:52.041Z,87.72
2019-02-06T04:13:27.745Z,87.85
2019-02-06T04:14:03.502Z,85.25
2019-02-06T04:14:39.221Z,87.65
2019-02-06T04:15:15.738Z,91.57
2019-02-06T04:15:51.441Z,87.45
2019-02-06T04:16:27.101Z,89.35
2019-02-06T04:17:02.850Z,89.07
2019-02-06T04:17:38.802Z,89.13
2019-02-06T04:18:14.605Z,88.92
2019-02-06T04:18:50.280Z,91.35
2019-02-06T04:19:26.245Z,87.72
2019-02-06T04:20:02.080Z,90.62
2019-02-06T04:20:37.941Z,84.75
2019-02-06T04:21:13.837Z,87.00
2019-02-06T04:21:49.538Z,85.00
2019-02-06T04:22:25.260Z,86.08
2019-02-06T04:23:01.237Z,84.40
2019-02-06T04:23:37.161Z,92.85
2019-02-06T04:24:12.898Z,85.38
2019-02-06T04:24:51.660Z,84.87
2019-02-06T04:25:26.502Z,85.40
2019-02-06T04:26:02.513Z,85.92
2019-02-06T04:26:38.437Z,86.80
2019-02-06T04:27:14.097Z,82.08
2019-02-06T04:27:49.898Z,84.55
2019-02-06T04:28:25.718Z,84.50
2019-02-06T04:29:01.620Z,82.80
2019-02-06T04:29:37.377Z,84.07
2019-02-06T04:30:13.797Z,80.83
2019-02-06T04:30:49.739Z,78.15
2019-02-06T04:31:25.538Z,86.02
2019-02-06T04:32:01.380Z,86.42
2019-02-06T04:32:37.140Z,85.87
2019-02-06T04:33:12.947Z,86.20
2019-02-06T04:33:48.900Z,82.70
2019-02-06T04:34:24.548Z,81.70
2019-02-06T04:35:00.260Z,85.12
2019-02-06T04:35:36.008Z,83.97
2019-02-06T04:36:12.068Z,83.62
2019-02-06T04:36:48.200Z,80.65
2019-02-06T04:37:24.040Z,79.10
2019-02-06T04:37:59.860Z,77.95
2019-02-06T04:38:35.798Z,79.67
2019-02-06T04:39:11.400Z,81.08
2019-02-06T04:39:47.881Z,82.97
2019-02-06T04:40:23.762Z,82.62
2019-02-06T04:40:59.408Z,86.85
2019-02-06T04:41:35.173Z,84.72
2019-02-06T04:42:10.800Z,80.62
2019-02-06T04:42:46.368Z,80.10
2019-02-06T04:43:22.221Z,79.20
2019-02-06T04:43:57.762Z,79.80
2019-02-06T04:44:33.380Z,81.28
2019-02-06T04:45:10.021Z,82.42
2019-02-06T04:45:46.008Z,78.90
2019-02-06T04:46:21.948Z,82.80
2019-02-06T04:46:57.702Z,79.40
2019-02-06T04:47:33.530Z,80.72
2019-02-06T04:48:09.261Z,78.07
2019-02-06T04:48:45.063Z,80.67
2019-02-06T04:49:21.081Z,81.53
2019-02-06T04:49:56.789Z,78.15
2019-02-06T04:50:32.568Z,77.27
2019-02-06T04:51:08.162Z,77.53
2019-02-06T04:51:43.980Z,81.15
2019-02-06T04:52:19.741Z,78.62
2019-02-06T04:52:55.362Z,78.90
2019-02-06T04:53:31.228Z,78.33
2019-02-06T04:54:07.220Z,80.55
2019-02-06T04:54:43.162Z,81.80
2019-02-06T04:55:19.069Z,82.00
2019-02-06T04:55:55.140Z,83.17
2019-02-06T04:56:31.223Z,80.53
2019-02-06T04:57:09.453Z,81.75
2019-02-06T04:57:44.629Z,78.90
2019-02-06T04:58:20.560Z,75.55
2019-02-06T04:58:56.229Z,81.15
2019-02-06T04:59:31.868Z,81.22
2019-02-06T05:00:12.820Z,85.92
2019-02-06T05:00:48.464Z,84.83
2019-02-06T05:01:24.242Z,86.10
2019-02-06T05:01:59.900Z,82.10
2019-02-06T05:02:35.560Z,82.50
2019-02-06T05:03:11.588Z,83.25
2019-02-06T05:03:47.361Z,82.88
2019-02-06T05:04:23.029Z,86.25
2019-02-06T05:04:58.829Z,75.85
2019-02-06T05:05:34.641Z,82.10
2019-02-06T05:06:10.540Z,78.50
2019-02-06T05:06:46.248Z,80.22
2019-02-06T05:07:22.101Z,78.33
2019-02-06T05:07:57.822Z,82.88
2019-02-06T05:08:33.860Z,85.30
2019-02-06T05:09:09.900Z,87.78
2019-02-06T05:09:46.020Z,85.53
2019-02-06T05:10:21.700Z,84.05
2019-02-06T05:10:57.308Z,79.20
2019-02-06T05:11:33.240Z,82.30
2019-02-06T05:12:09.669Z,80.40
2019-02-06T05:12:45.624Z,80.95
2019-02-06T05:13:21.548Z,80.32
2019-02-06T05:13:57.249Z,81.70
2019-02-06T05:14:33.087Z,79.15
2019-02-06T05:15:09.332Z,79.95
2019-02-06T05:15:45.167Z,81.78
2019-02-06T05:16:21.088Z,79.10
2019-02-06T05:16:56.750Z,79.95
2019-02-06T05:17:32.456Z,79.97
2019-02-06T05:18:08.232Z,79.58
2019-02-06T05:18:43.872Z,79.15
2019-02-06T05:19:19.601Z,80.67
2019-02-06T05:19:55.340Z,81.57
2019-02-06T05:20:41.680Z,80.45
2019-02-06T05:21:17.710Z,81.35
2019-02-06T05:21:53.489Z,82.40
2019-02-06T05:22:29.542Z,79.75
2019-02-06T05:23:05.659Z,80.17
2019-02-06T05:23:41.256Z,79.70
2019-02-06T05:24:16.919Z,78.07
2019-02-06T05:24:52.783Z,84.00
2019-02-06T05:25:28.936Z,79.05
2019-02-06T05:26:04.713Z,79.40
2019-02-06T05:26:40.292Z,73.72
2019-02-06T05:27:16.352Z,76.75
2019-02-06T05:27:52.315Z,79.35
2019-02-06T05:28:28.094Z,79.05
2019-02-06T05:29:03.817Z,83.40
2019-02-06T05:29:39.533Z,81.22
2019-02-06T05:30:15.748Z,83.60
2019-02-06T05:30:51.960Z,79.95
2019-02-06T05:31:27.888Z,80.20
2019-02-06T05:32:03.582Z,76.37
2019-02-06T05:32:43.017Z,82.55
2019-02-06T05:33:17.134Z,80.77
2019-02-06T05:33:53.134Z,77.32
2019-02-06T05:34:28.914Z,80.25
2019-02-06T05:35:05.335Z,74.65
2019-02-06T05:35:41.034Z,78.37
2019-02-06T05:36:16.978Z,76.92
2019-02-06T05:36:52.573Z,74.90
2019-02-06T05:37:32.049Z,76.25
2019-02-06T05:38:06.292Z,78.60
2019-02-06T05:38:42.277Z,73.37
2019-02-06T05:39:18.495Z,75.50
2019-02-06T05:39:54.949Z,80.17
2019-02-06T05:40:30.867Z,75.42
2019-02-06T05:41:06.607Z,78.00
2019-02-06T05:41:42.347Z,74.67
2019-02-06T05:42:18.058Z,73.47
2019-02-06T05:42:54.160Z,80.57
2019-02-06T05:43:29.756Z,74.12
2019-02-06T05:44:05.526Z,74.95
2019-02-06T05:44:41.253Z,74.32
2019-02-06T05:45:17.425Z,75.03
2019-02-06T05:45:53.161Z,78.17
2019-02-06T05:46:28.968Z,72.40
2019-02-06T05:47:04.802Z,77.05
2019-02-06T05:47:40.775Z,75.62
2019-02-06T05:48:16.531Z,76.53
2019-02-06T05:48:52.312Z,77.87
2019-02-06T05:49:28.052Z,75.10
2019-02-06T05:50:04.073Z,79.32
2019-02-06T05:50:39.891Z,78.47
2019-02-06T05:51:16.963Z,80.77
2019-02-06T05:51:52.792Z,77.32
2019-02-06T05:52:29.127Z,77.58
2019-02-06T05:53:05.030Z,81.65
2019-02-06T05:53:40.768Z,76.20
2019-02-06T05:54:16.411Z,82.27
2019-02-06T05:54:52.051Z,82.20
2019-02-06T05:55:27.607Z,81.42
2019-02-06T05:56:03.177Z,79.27
2019-02-06T05:56:39.026Z,79.70
2019-02-06T05:57:14.859Z,80.30
2019-02-06T05:57:51.272Z,82.25
2019-02-06T05:58:27.177Z,80.60
2019-02-06T05:59:02.793Z,75.97
2019-02-06T05:59:38.594Z,75.55
2019-02-06T06:00:24.736Z,75.85
2019-02-06T06:01:00.427Z,72.12
2019-02-06T06:01:36.514Z,75.37
2019-02-06T06:02:12.417Z,74.82
2019-02-06T06:02:48.617Z,77.08
2019-02-06T06:03:24.504Z,77.40
2019-02-06T06:04:00.663Z,77.50
2019-02-06T06:04:36.517Z,77.08
2019-02-06T06:05:12.384Z,75.92
2019-02-06T06:05:48.109Z,78.92
2019-02-06T06:06:24.068Z,76.77
2019-02-06T06:06:59.882Z,76.07
2019-02-06T06:07:44.562Z,77.32
2019-02-06T06:08:13.060Z,75.65
2019-02-06T06:08:48.921Z,76.20
2019-02-06T06:09:24.463Z,76.67
2019-02-06T06:10:00.519Z,80.65
2019-02-06T06:10:36.408Z,78.22
2019-02-06T06:11:12.403Z,81.25
2019-02-06T06:11:48.410Z,78.90
2019-02-06T06:12:24.111Z,77.85
2019-02-06T06:12:59.904Z,80.55
2019-02-06T06:13:35.754Z,79.00
2019-02-06T06:14:11.643Z,82.02
2019-02-06T06:14:47.870Z,76.42
2019-02-06T06:15:24.547Z,78.47
2019-02-06T06:16:00.861Z,78.40
2019-02-06T06:16:37.905Z,73.60
2019-02-06T06:17:14.399Z,79.87
2019-02-06T06:17:50.752Z,84.05
2019-02-06T06:18:26.605Z,74.87
2019-02-06T06:19:02.304Z,73.28
2019-02-06T06:19:38.213Z,75.20
2019-02-06T06:20:15.857Z,75.42
2019-02-06T06:20:51.900Z,72.40
2019-02-06T06:21:28.436Z,75.97
2019-02-06T06:22:04.754Z,75.15
2019-02-06T06:22:41.243Z,75.47
2019-02-06T06:23:17.594Z,80.60
2019-02-06T06:23:53.441Z,78.28
2019-02-06T06:24:29.477Z,79.62
2019-02-06T06:25:05.963Z,79.47
2019-02-06T06:25:41.622Z,80.05
2019-02-06T06:26:17.483Z,80.92
2019-02-06T06:26:53.365Z,77.40
2019-02-06T06:27:29.123Z,75.25
2019-02-06T06:28:05.021Z,76.77
2019-02-06T06:28:40.822Z,80.47
2019-02-06T06:29:16.744Z,76.10
2019-02-06T06:29:52.652Z,73.25
2019-02-06T06:30:28.859Z,77.75
2019-02-06T06:31:04.618Z,75.17
2019-02-06T06:31:41.067Z,79.07
2019-02-06T06:32:16.575Z,78.87
2019-02-06T06:32:52.639Z,80.03
2019-02-06T06:33:28.341Z,80.12
2019-02-06T06:34:04.202Z,76.02
2019-02-06T06:34:42.442Z,80.85
2019-02-06T06:35:18.396Z,78.85
2019-02-06T06:35:54.243Z,78.15
2019-02-06T06:36:29.971Z,78.15
2019-02-06T06:37:05.778Z,77.80
2019-02-06T06:37:41.808Z,75.72
2019-02-06T06:38:17.908Z,79.72
2019-02-06T06:38:53.885Z,79.55
2019-02-06T06:39:29.848Z,77.60
2019-02-06T06:40:06.694Z,77.78
2019-02-06T06:40:42.635Z,77.75
2019-02-06T06:41:18.403Z,80.10
2019-02-06T06:41:54.357Z,79.15
2019-02-06T06:42:30.159Z,76.72
2019-02-06T06:43:06.154Z,80.28
2019-02-06T06:43:42.220Z,77.53
2019-02-06T06:44:18.641Z,77.97
2019-02-06T06:44:55.180Z,79.60
2019-02-06T06:45:31.335Z,80.00
2019-02-06T06:46:07.480Z,79.77
2019-02-06T06:46:43.521Z,81.22
2019-02-06T06:47:19.176Z,78.12
2019-02-06T06:47:55.140Z,79.50
2019-02-06T06:48:30.942Z,82.97
2019-02-06T06:49:07.433Z,80.85
2019-02-06T06:49:43.177Z,86.22
2019-02-06T06:50:23.697Z,82.05
2019-02-06T06:50:59.514Z,78.95
2019-02-06T06:51:35.317Z,79.30
2019-02-06T06:52:11.237Z,79.95
2019-02-06T06:52:46.958Z,79.92
2019-02-06T06:53:22.883Z,80.28
2019-02-06T06:53:58.947Z,81.00
2019-02-06T06:54:34.837Z,83.70
2019-02-06T06:55:11.827Z,82.72
2019-02-06T06:55:47.846Z,79.82
2019-02-06T06:56:23.453Z,80.57
2019-02-06T06:56:59.426Z,77.60
2019-02-06T06:57:35.085Z,82.15
2019-02-06T06:58:11.366Z,79.77
2019-02-06T06:58:47.600Z,77.17
2019-02-06T06:59:23.353Z,74.15
2019-02-06T06:59:59.079Z,79.92
2019-02-06T07:00:34.900Z,79.10
2019-02-06T07:01:11.173Z,77.78
2019-02-06T07:01:46.908Z,76.75
2019-02-06T07:02:22.619Z,78.70
2019-02-06T07:02:58.667Z,82.67
2019-02-06T07:03:35.130Z,78.78
2019-02-06T07:04:09.987Z,78.00
2019-02-06T07:04:45.891Z,78.87
2019-02-06T07:05:21.555Z,75.28
2019-02-06T07:05:57.318Z,75.78
2019-02-06T07:06:33.198Z,78.60
2019-02-06T07:07:09.093Z,79.87
2019-02-06T07:07:45.319Z,81.30
2019-02-06T07:08:20.999Z,78.52
2019-02-06T07:08:57.099Z,81.95
2019-02-06T07:09:32.851Z,76.80
2019-02-06T07:10:12.213Z,77.53
2019-02-06T07:10:46.719Z,77.92
2019-02-06T07:11:22.418Z,77.12
2019-02-06T07:11:58.398Z,77.32
2019-02-06T07:12:34.328Z,78.65
2019-02-06T07:13:10.275Z,74.65
2019-02-06T07:13:51.443Z,73.85
2019-02-06T07:14:26.798Z,77.30
2019-02-06T07:15:02.523Z,75.45
2019-02-06T07:15:38.482Z,76.05
2019-02-06T07:16:14.330Z,74.90
2019-02-06T07:16:50.233Z,74.03
2019-02-06T07:17:26.164Z,73.05
2019-02-06T07:18:02.168Z,76.97
2019-02-06T07:18:39.814Z,74.05
2019-02-06T07:19:15.564Z,74.25
2019-02-06T07:19:51.504Z,76.37
2019-02-06T07:20:27.184Z,73.02
2019-02-06T07:21:02.836Z,77.53
2019-02-06T07:21:38.691Z,76.80
2019-02-06T07:22:14.772Z,73.02
2019-02-06T07:22:50.936Z,72.20
2019-02-06T07:23:27.440Z,71.00
2019-02-06T07:24:03.183Z,78.60
2019-02-06T07:24:38.982Z,76.55
2019-02-06T07:25:15.604Z,74.70
2019-02-06T07:25:51.442Z,73.22
2019-02-06T07:26:27.198Z,70.52
2019-02-06T07:27:03.004Z,72.47
2019-02-06T07:27:38.642Z,70.55
2019-02-06T07:28:14.623Z,71.10
2019-02-06T07:28:50.222Z,69.45
2019-02-06T07:29:25.862Z,71.92
2019-02-06T07:30:01.663Z,72.35
2019-02-06T07:30:38.163Z,72.72
2019-02-06T07:31:14.086Z,68.20
2019-02-06T07:31:49.782Z,72.05
2019-02-06T07:32:25.601Z,69.17
2019-02-06T07:33:01.504Z,73.17
2019-02-06T07:33:37.343Z,71.87
2019-02-06T07:34:13.323Z,66.53
2019-02-06T07:34:49.292Z,69.40
2019-02-06T07:35:25.307Z,72.25
2019-02-06T07:36:01.363Z,73.97
2019-02-06T07:36:37.304Z,67.90
2019-02-06T07:37:14.119Z,71.12
2019-02-06T07:37:50.272Z,68.10
2019-02-06T07:38:26.955Z,71.87
2019-02-06T07:39:03.433Z,67.35
2019-02-06T07:39:39.739Z,70.15
2019-02-06T07:40:16.732Z,67.58
2019-02-06T07:40:52.924Z,70.40
2019-02-06T07:41:28.554Z,67.42
2019-02-06T07:42:04.301Z,72.32
2019-02-06T07:42:39.710Z,71.72